West Memphis, Arkansas
Current Conditions -  °F | °C
As of 4:53 AM on Thursday 27 Nov 2014 (Local Time) from KAWM Reporting Station
Overcast Overcast  
Wind Chill: 30°   Ceiling: 3600
Heat Index: 38°   Visibility: 10mi
Dew Point: 31°   Wind: 12mph
Humidity: 76%   Direction: 350°N
Pressure: 30.37"   Gusts: 16mph
Location:  35.15°N, 90.19°W
Report Text: KAWM 271053Z AUTO 35010G14KT 10SM OVC036 03/M01 A3037 RMK AO2 SLP286 T00331006
Loading
Personal Weather Stations






























Interactive Weather Map New forecast layout! Learn more

10-Day Weather Forecast

Advertisements
Track Severe Weather on mobile